Time;durP1;ratioP1;P1;durP2;ratioP2;P2;SDS_P1;SDS_P2;PMS_P1;PMS_P2;Temp;Humidity;BMP_temperature;BMP_pressure;BME280_temperature;BME280_humidity;BME280_pressure;Samples;Min_cycle;Max_cycle;Signal;HPM_P1;HPM_P2
2020/12/26 00:01:24;;;;;;;8.17;5.37;;;;;;;2.84;65.81;99914.88;1621493;87;21238;-85
2020/12/26 00:03:52;;;;;;;9.27;6.17;;;;;;;2.88;65.73;99920.20;1591494;87;21247;-83
2020/12/26 00:06:20;;;;;;;6.73;5.30;;;;;;;3.01;65.12;99923.77;1575327;89;21394;-85
2020/12/26 00:08:48;;;;;;;9.07;6.80;;;;;;;3.02;65.01;99922.80;1594376;87;22383;-84
2020/12/26 00:11:18;;;;;;;8.87;5.70;;;;;;;2.95;65.01;99919.60;1590407;87;21673;-85
2020/12/26 00:13:51;;;;;;;8.80;6.23;;;;;;;2.90;65.16;99919.56;1589455;86;21689;-85
2020/12/26 00:16:18;;;;;;;9.50;6.27;;;;;;;2.89;65.31;99917.08;1595197;87;21242;-84
2020/12/26 00:18:46;;;;;;;8.37;6.20;;;;;;;2.88;65.19;99923.30;1594376;87;21244;-84
2020/12/26 00:21:16;;;;;;;10.77;5.40;;;;;;;2.87;65.07;99931.70;1592205;87;21250;-82
2020/12/26 00:23:43;;;;;;;6.90;5.67;;;;;;;2.87;64.91;99934.83;1598183;86;22367;-84
2020/12/26 00:26:18;;;;;;;10.63;5.57;;;;;;;2.83;64.62;99942.19;1610786;87;21634;-82
2020/12/26 00:28:47;;;;;;;6.70;5.20;;;;;;;2.84;64.45;99937.25;1592188;87;21734;-84
2020/12/26 00:31:17;;;;;;;7.80;4.60;;;;;;;2.84;64.25;99939.06;1590530;87;21224;-86
2020/12/26 00:33:44;;;;;;;6.37;3.90;;;;;;;2.80;63.81;99942.97;1595562;87;21232;-89
2020/12/26 00:36:14;;;;;;;4.87;3.30;;;;;;;2.85;64.10;99942.05;1561284;88;21333;-89
2020/12/26 00:38:54;;;;;;;5.07;3.57;;;;;;;1.91;63.85;99794.00;1572830;88;21270;-88
2020/12/26 00:41:24;;;;;;;4.77;3.43;;;;;;;2.88;63.85;99941.27;1585590;88;21240;-86
2020/12/26 00:43:51;;;;;;;4.83;4.00;;;;;;;2.88;63.36;99945.22;1578212;88;21641;-88
2020/12/26 00:46:21;;;;;;;4.40;3.40;;;;;;;2.87;63.31;99948.81;1577052;88;21306;-86
2020/12/26 00:48:50;;;;;;;8.57;4.10;;;;;;;2.92;63.21;99951.02;1571276;89;21205;-86
2020/12/26 00:51:17;;;;;;;3.77;2.83;;;;;;;2.90;62.99;99957.74;1566136;90;21244;-89
2020/12/26 00:53:45;;;;;;;5.07;3.37;;;;;;;2.93;63.04;99953.48;1575692;89;21212;-87
2020/12/26 00:56:13;;;;;;;4.47;2.73;;;;;;;2.95;62.73;99961.73;1577449;89;21307;-86
2020/12/26 00:58:42;;;;;;;3.93;2.97;;;;;;;2.94;62.83;99963.55;1585640;88;21385;-87
2020/12/26 01:01:10;;;;;;;3.13;2.33;;;;;;;2.94;62.59;99953.01;1563342;89;21224;-85
2020/12/26 01:04:00;;;;;;;3.00;2.47;;;;;;;2.96;62.65;99955.47;1837787;77;22581;-87
2020/12/26 01:06:27;;;;;;;3.57;2.93;;;;;;;2.91;62.33;99959.38;1762087;78;21085;-90
2020/12/26 01:08:55;;;;;;;4.20;3.80;;;;;;;2.89;62.46;99963.97;1735812;81;21386;-87
2020/12/26 01:11:23;;;;;;;3.30;3.00;;;;;;;2.89;62.72;99967.91;1721646;81;22277;-87
2020/12/26 01:13:50;;;;;;;3.43;2.83;;;;;;;2.92;62.83;99965.00;1723774;81;21218;-85
2020/12/26 01:16:19;;;;;;;3.77;3.47;;;;;;;2.92;62.71;99960.23;1732266;81;21620;-84
2020/12/26 01:18:46;;;;;;;4.37;3.10;;;;;;;2.91;62.57;99969.91;1730977;81;21195;-82
2020/12/26 01:21:13;;;;;;;;;;;;;;;2.88;62.87;99968.06;1727099;81;21207;-83
2020/12/26 01:23:44;;;;;;;3.33;2.55;;;;;;;2.89;62.84;99964.47;1727864;81;20524;-81
2020/12/26 01:26:16;;;;;;;3.57;2.40;;;;;;;2.82;63.12;99964.70;1731847;81;21310;-82
2020/12/26 01:28:45;;;;;;;3.67;2.67;;;;;;;2.81;63.14;99963.89;1739077;81;21306;-82
2020/12/26 01:31:20;;;;;;;2.57;2.37;;;;;;;2.82;63.11;99961.58;1730590;81;21215;-84
2020/12/26 01:33:47;;;;;;;3.50;2.80;;;;;;;2.83;63.62;99963.25;1721930;81;21242;-83
2020/12/26 01:36:13;;;;;;;;;;;;;;;2.84;63.23;99960.94;1715924;81;21085;-84
2020/12/26 01:38:40;;;;;;;5.95;4.20;;;;;;;2.81;63.07;99970.47;1715213;82;20520;-83
2020/12/26 01:41:08;;;;;;;4.63;2.80;;;;;;;2.75;63.56;99964.48;1729929;83;21203;-82
2020/12/26 01:43:37;;;;;;;4.67;3.90;;;;;;;2.74;63.69;99972.02;1719506;82;21645;-83
2020/12/26 01:46:04;;;;;;;6.53;4.17;;;;;;;2.76;63.43;99970.07;1721549;83;21195;-83
2020/12/26 01:48:30;;;;;;;;;;;;;;;1.69;63.15;99799.12;1726915;82;21194;-83
2020/12/26 01:50:58;;;;;;;3.70;2.53;;;;;;;2.72;63.44;99963.45;1724940;82;20202;-82
2020/12/26 01:53:27;;;;;;;4.57;3.40;;;;;;;2.66;63.55;99962.73;1723689;81;21202;-84
2020/12/26 01:55:54;;;;;;;3.83;3.33;;;;;;;2.63;63.50;99955.94;1728513;83;21179;-86
2020/12/26 01:58:21;;;;;;;4.50;3.80;;;;;;;2.65;63.85;99961.05;1723269;82;21191;-84
2020/12/26 02:00:48;;;;;;;4.37;3.53;;;;;;;2.64;63.62;99958.09;1727754;82;21154;-85
2020/12/26 02:03:16;;;;;;;5.77;4.20;;;;;;;2.64;63.35;99958.09;1726265;83;21194;-84
2020/12/26 02:05:44;;;;;;;6.47;3.53;;;;;;;2.60;63.57;99960.19;1722662;82;21056;-84
2020/12/26 02:08:11;;;;;;;3.83;3.17;;;;;;;2.63;63.65;99967.77;1699843;83;21200;-86
2020/12/26 02:10:42;;;;;;;3.67;2.40;;;;;;;2.65;63.29;99963.69;1665846;85;21218;-84
2020/12/26 02:13:09;;;;;;;2.53;2.33;;;;;;;2.66;63.38;99967.98;1642463;86;21310;-85
2020/12/26 02:15:37;;;;;;;2.67;1.90;;;;;;;2.66;63.61;99968.81;1657037;86;21355;-87
2020/12/26 02:18:05;;;;;;;4.10;2.60;;;;;;;2.68;63.25;99962.09;1679639;85;21179;-88
2020/12/26 02:20:34;;;;;;;3.97;2.50;;;;;;;2.68;63.47;99968.17;1681311;85;21676;-85
2020/12/26 02:23:03;;;;;;;1.97;1.73;;;;;;;2.70;63.31;99971.98;1691474;84;21354;-83
2020/12/26 02:25:30;;;;;;;2.50;1.90;;;;;;;2.70;62.64;99976.75;1689393;84;21314;-82
2020/12/26 02:27:57;;;;;;;3.13;1.90;;;;;;;2.69;62.66;99979.05;1689247;84;21160;-83
2020/12/26 02:30:24;;;;;;;4.07;2.50;;;;;;;2.68;63.05;99976.56;1687342;84;21220;-82
2020/12/26 02:32:52;;;;;;;2.77;2.37;;;;;;;2.71;62.63;99978.42;1683597;84;21373;-82
2020/12/26 02:35:19;;;;;;;2.93;2.53;;;;;;;2.73;62.65;99975.62;1676778;84;21634;-83
2020/12/26 02:37:46;;;;;;;2.80;2.40;;;;;;;2.74;62.30;99987.81;1702730;84;21265;-83
2020/12/26 02:40:13;;;;;;;3.17;2.60;;;;;;;2.72;62.12;99980.55;1705211;84;21184;-81
2020/12/26 02:42:40;;;;;;;3.43;2.80;;;;;;;2.72;62.52;99987.13;1713254;83;21280;-82
2020/12/26 02:45:07;;;;;;;2.93;2.63;;;;;;;2.69;61.82;99988.27;1721626;82;21796;-82
2020/12/26 02:47:34;;;;;;;2.50;2.10;;;;;;;2.65;62.00;99990.83;1709468;84;21211;-81
2020/12/26 02:50:01;;;;;;;3.73;2.23;;;;;;;2.65;62.07;99997.41;1707949;83;21450;-81
2020/12/26 02:52:30;;;;;;;2.27;2.07;;;;;;;2.60;62.27;99996.18;1710572;83;21187;-83
2020/12/26 02:54:57;;;;;;;2.83;2.63;;;;;;;2.59;62.72;99994.05;1691141;83;21321;-82
2020/12/26 02:57:24;;;;;;;2.80;2.33;;;;;;;2.59;62.74;99991.91;1709454;84;21276;-83
2020/12/26 02:59:51;;;;;;;2.90;2.47;;;;;;;2.62;62.79;99988.97;1708231;83;21172;-84
2020/12/26 03:02:18;;;;;;;2.97;2.60;;;;;;;2.62;62.75;99985.02;1706082;83;21650;-82
2020/12/26 03:04:45;;;;;;;3.13;2.50;;;;;;;2.61;63.09;99989.46;1709894;82;21685;-82
2020/12/26 03:07:13;;;;;;;2.97;2.30;;;;;;;2.63;62.82;99992.77;1696189;84;21090;-81
2020/12/26 03:09:40;;;;;;;2.57;1.93;;;;;;;2.61;62.55;99982.06;1704646;83;21180;-83
2020/12/26 03:12:07;;;;;;;2.43;2.23;;;;;;;2.58;62.54;99991.09;1681866;81;21152;-86
2020/12/26 03:14:34;;;;;;;4.20;2.50;;;;;;;2.53;61.80;99991.50;1723698;81;21160;-85
2020/12/26 03:17:02;;;;;;;1.60;1.50;;;;;;;2.52;62.04;99989.86;1696483;83;21716;-85
2020/12/26 03:21:24;;;;;;;2.33;1.00;;;;;;;2.53;61.66;100001.20;1769785;79;22780;-85
2020/12/26 03:23:51;;;;;;;1.43;1.33;;;;;;;2.46;61.59;100007.52;1736659;80;21642;-84
2020/12/26 03:26:20;;;;;;;1.30;1.20;;;;;;;2.42;61.57;100010.10;1747234;80;21730;-86
2020/12/26 03:28:46;;;;;;;1.17;0.97;;;;;;;2.43;61.14;100005.66;1732510;82;21231;-84
2020/12/26 03:31:14;;;;;;;2.70;1.43;;;;;;;2.46;60.58;100009.33;1731619;82;21153;-84
2020/12/26 03:33:41;;;;;;;1.40;1.30;;;;;;;2.44;60.91;100009.96;1718355;82;21253;-83
2020/12/26 03:36:08;;;;;;;1.00;0.90;;;;;;;2.47;60.81;100014.95;1688453;83;21133;-82
2020/12/26 03:38:35;;;;;;;1.23;1.10;;;;;;;2.47;61.28;100014.45;1671681;84;21312;-81
2020/12/26 03:41:02;;;;;;;1.57;1.23;;;;;;;2.49;61.07;100013.82;1663842;85;21637;-83
2020/12/26 03:43:29;;;;;;;1.97;1.57;;;;;;;2.52;61.28;100014.86;1655122;85;21167;-86
2020/12/26 03:45:57;;;;;;;2.13;1.57;;;;;;;2.49;60.97;100011.69;1655701;85;21203;-86
2020/12/26 03:48:24;;;;;;;2.90;1.80;;;;;;;2.47;60.87;100014.45;1654079;85;21221;-85
2020/12/26 03:50:52;;;;;;;2.67;2.10;;;;;;;2.44;60.98;100009.47;1633358;85;21625;-87
2020/12/26 03:53:19;;;;;;;2.13;1.47;;;;;;;2.47;61.27;100011.83;1664636;84;21193;-87
2020/12/26 03:55:46;;;;;;;0.87;0.87;;;;;;;2.45;61.31;100010.29;1659847;84;21204;-87
2020/12/26 03:58:15;;;;;;;2.80;1.70;;;;;;;2.45;61.39;100016.41;1675688;84;21168;-87
2020/12/26 04:00:42;;;;;;;1.17;1.07;;;;;;;2.41;61.46;100018.98;1668735;85;21683;-83
2020/12/26 04:03:09;;;;;;;1.20;0.83;;;;;;;2.42;61.47;100019.30;1664600;85;21269;-84
2020/12/26 04:05:37;;;;;;;0.80;0.80;;;;;;;2.35;60.71;100011.64;1673011;84;21080;-84
2020/12/26 04:08:03;;;;;;;2.93;1.10;;;;;;;2.28;61.09;100007.45;1681106;84;21177;-85
2020/12/26 04:10:32;;;;;;;0.97;0.70;;;;;;;2.24;61.50;100015.75;1684434;84;21338;-85
2020/12/26 04:13:00;;;;;;;3.47;1.23;;;;;;;2.22;61.75;100019.84;1684189;85;21337;-87
2020/12/26 04:15:27;;;;;;;1.00;0.90;;;;;;;2.18;61.54;100022.91;1684179;84;21192;-85
2020/12/26 04:17:54;;;;;;;1.10;1.00;;;;;;;2.10;61.84;100013.92;1682443;84;21228;-87
2020/12/26 04:20:21;;;;;;;0.87;0.77;;;;;;;2.06;62.10;100017.80;1656502;84;21658;-84
2020/12/26 04:22:49;;;;;;;1.33;1.03;;;;;;;1.97;62.12;100021.28;1641979;86;21137;-83
2020/12/26 04:25:17;;;;;;;1.03;0.60;;;;;;;1.91;62.06;100020.53;1639650;86;21350;-83
2020/12/26 04:27:45;;;;;;;1.07;0.90;;;;;;;1.81;62.37;100028.89;1627378;87;21369;-85
2020/12/26 04:30:14;;;;;;;0.80;0.80;;;;;;;1.79;62.41;100045.28;1629961;87;21191;-82
2020/12/26 04:32:41;;;;;;;0.50;0.40;;;;;;;1.75;62.81;100042.95;1623535;87;21216;-81
2020/12/26 04:35:08;;;;;;;1.00;0.60;;;;;;;1.74;62.69;100043.91;1625349;87;21197;-83
2020/12/26 04:37:35;;;;;;;0.50;0.43;;;;;;;1.72;62.67;100049.79;1632960;87;21268;-81
2020/12/26 04:40:03;;;;;;;0.40;0.40;;;;;;;1.76;62.58;100052.97;1631920;86;21156;-83
2020/12/26 04:42:30;;;;;;;0.80;0.80;;;;;;;1.73;62.74;100040.09;1633534;87;21211;-82
2020/12/26 04:44:57;;;;;;;1.17;0.73;;;;;;;1.75;62.44;100048.67;1629928;84;21169;-82
2020/12/26 04:47:30;;;;;;;0.57;0.57;;;;;;;1.70;62.63;100057.47;1633129;85;21301;-81
2020/12/26 04:50:00;;;;;;;0.97;0.87;;;;;;;1.69;62.70;100052.68;1628294;87;21208;-81
2020/12/26 04:52:30;;;;;;;2.50;0.97;;;;;;;1.67;62.99;100065.62;1623599;87;21214;-83
2020/12/26 04:54:57;;;;;;;0.63;0.63;;;;;;;1.69;62.74;100067.13;1618763;87;21225;-81
2020/12/26 04:57:25;;;;;;;0.67;0.57;;;;;;;1.69;62.86;100068.94;1626141;87;21331;-80
2020/12/26 04:59:52;;;;;;;7.73;1.40;;;;;;;1.71;62.50;100074.88;1600046;87;21231;-82
2020/12/26 05:02:19;;;;;;;;;;;;;;;1.69;62.63;100067.13;1621167;87;21229;-80
2020/12/26 05:04:46;;;;;;;0.60;0.60;;;;;;;1.68;62.17;100066.80;1628755;87;20184;-81
2020/12/26 05:07:15;;;;;;;1.10;0.80;;;;;;;1.62;62.58;100063.87;1651451;86;21373;-81
2020/12/26 05:09:42;;;;;;;;;;;;;;;1.63;62.90;100071.63;1655802;85;21335;-82
2020/12/26 05:12:09;;;;;;;2.30;2.05;;;;;;;1.68;62.58;100066.80;1654073;87;20380;-82
2020/12/26 05:14:36;;;;;;;3.47;2.20;;;;;;;1.62;62.96;100066.05;1657411;85;21236;-83
2020/12/26 05:17:04;;;;;;;5.87;3.10;;;;;;;1.62;62.70;100069.98;1608844;87;21205;-83
2020/12/26 05:19:31;;;;;;;5.23;3.00;;;;;;;1.59;62.80;100068.12;1641573;85;21639;-82
2020/12/26 05:21:58;;;;;;;5.17;3.00;;;;;;;1.61;62.87;100073.56;1711195;84;21719;-82
2020/12/26 05:24:25;;;;;;;3.13;2.20;;;;;;;1.57;62.94;100067.42;1709493;82;21153;-83
2020/12/26 05:26:53;;;;;;;2.10;1.70;;;;;;;1.60;62.88;100069.30;1706468;82;21718;-84
2020/12/26 05:29:21;;;;;;;1.80;1.53;;;;;;;1.55;62.88;100070.18;1691705;82;21228;-84
2020/12/26 05:31:57;;;;;;;1.90;1.03;;;;;;;1.52;63.04;100073.89;1699518;82;21208;-81
2020/12/26 05:34:34;;;;;;;2.87;1.93;;;;;;;1.48;63.08;100076.94;1702132;82;21315;-84
2020/12/26 05:37:02;;;;;;;3.07;1.37;;;;;;;1.47;63.15;100087.09;1690864;83;21100;-82
2020/12/26 05:39:38;;;;;;;3.00;1.43;;;;;;;1.43;63.44;100089.64;1666586;85;21199;-82
2020/12/26 05:42:05;;;;;;;1.83;1.17;;;;;;;1.43;63.42;100089.18;1672091;84;21848;-83
2020/12/26 05:44:37;;;;;;;1.07;1.00;;;;;;;1.40;63.69;100084.68;1698438;83;21315;-82
2020/12/26 05:47:06;;;;;;;1.17;0.80;;;;;;;1.44;63.57;100092.14;1691449;83;21229;-79
2020/12/26 05:52:17;;;;;;;0.83;0.80;;;;;;;1.42;63.84;100090.63;1811519;77;23103;-80
2020/12/26 05:54:50;;;;;;;1.53;0.80;;;;;;;1.32;63.78;100098.48;1720846;83;21697;-81
2020/12/26 05:57:18;;;;;;;1.00;0.90;;;;;;;0.98;63.73;100038.42;1709738;83;21177;-82
2020/12/26 05:59:49;;;;;;;1.77;1.17;;;;;;;1.31;64.05;100116.02;1693089;83;21225;-79
2020/12/26 06:02:29;;;;;;;0.70;0.70;;;;;;;1.33;64.04;100111.95;1718718;82;21200;-80
2020/12/26 06:05:03;;;;;;;1.73;1.53;;;;;;;1.33;63.91;100111.45;1703126;83;21849;-80
2020/12/26 06:07:35;;;;;;;1.23;0.77;;;;;;;1.31;63.53;100121.76;1704982;83;21149;-82
2020/12/26 06:10:05;;;;;;;3.03;1.50;;;;;;;1.23;63.88;100119.80;1735034;81;21172;-79
2020/12/26 06:12:33;;;;;;;4.37;1.97;;;;;;;1.15;64.06;100117.02;1737558;81;21318;-80
2020/12/26 06:15:00;;;;;;;1.67;1.47;;;;;;;1.08;64.36;100112.77;1725583;81;21192;-81
2020/12/26 06:17:30;;;;;;;2.30;1.67;;;;;;;1.11;64.36;100118.22;1731916;81;22441;-79
2020/12/26 06:20:06;;;;;;;3.83;2.07;;;;;;;1.01;64.57;100116.88;1707727;83;21200;-82
2020/12/26 06:22:50;;;;;;;4.70;2.13;;;;;;;1.00;64.75;100116.55;1710986;83;21404;-81
2020/12/26 06:25:21;;;;;;;1.60;1.50;;;;;;;0.95;64.99;100127.42;1708710;83;21217;-81
2020/12/26 06:28:01;;;;;;;2.73;1.73;;;;;;;1.00;65.11;100135.37;1581591;90;21373;-83
2020/12/26 06:30:30;;;;;;;2.13;1.60;;;;;;;1.00;65.15;100148.05;1624317;87;21446;-81
2020/12/26 06:32:57;;;;;;;2.70;2.20;;;;;;;1.04;65.03;100140.74;1632172;86;21289;-82
2020/12/26 06:35:24;;;;;;;6.90;3.13;;;;;;;1.01;65.13;100147.06;1616452;86;21171;-81
2020/12/26 06:38:19;;;;;;;4.77;4.27;;;;;;;1.03;65.16;100142.52;1578802;89;21248;-82
2020/12/26 06:41:07;;;;;;;6.70;4.80;;;;;;;1.04;65.16;100135.00;1581805;89;21705;-89
2020/12/26 06:43:55;;;;;;;5.90;4.80;;;;;;;1.15;65.06;100140.65;1826679;75;22949;-82
2020/12/26 06:46:35;;;;;;;10.33;6.07;;;;;;;1.14;65.06;100154.23;1740212;81;21156;-93
2020/12/26 06:49:25;;;;;;;12.23;6.93;;;;;;;1.26;65.11;100158.94;1824624;77;22878;-84
2020/12/26 06:51:52;;;;;;;12.20;8.05;;;;;;;1.20;65.07;100167.80;1806538;78;21172;-84
2020/12/26 06:54:41;;;;;;;8.63;6.33;;;;;;;1.18;65.10;100165.80;1794019;78;21181;-82
2020/12/26 06:57:09;;;;;;;9.97;6.97;;;;;;;1.19;65.30;100174.00;1766942;80;21173;-82
2020/12/26 06:59:36;;;;;;;10.17;6.93;;;;;;;1.29;65.33;100165.21;1769900;79;21193;-86
2020/12/26 07:02:08;;;;;;;10.20;7.30;;;;;;;1.32;65.33;100161.02;1788639;78;21180;-83
2020/12/26 07:04:40;;;;;;;6.53;5.73;;;;;;;1.45;65.33;100163.42;1763102;81;21484;-84
2020/12/26 07:07:10;;;;;;;10.43;8.30;;;;;;;1.52;65.32;100164.52;1657489;81;21254;-81
2020/12/26 07:09:44;;;;;;;8.83;6.87;;;;;;;1.64;65.14;100170.98;1638255;85;21630;-84
2020/12/26 07:12:13;;;;;;;7.77;6.23;;;;;;;1.69;65.05;100169.61;1641412;86;21224;-83
2020/12/26 07:14:47;;;;;;;11.07;6.33;;;;;;;1.80;64.87;100179.67;1672365;84;21711;-83
2020/12/26 07:17:19;;;;;;;9.77;6.87;;;;;;;1.87;64.75;100176.86;1671609;84;21948;-84
2020/12/26 07:19:47;;;;;;;11.07;6.43;;;;;;;1.91;64.61;100179.06;1668931;84;21685;-84
2020/12/26 07:22:33;;;;;;;7.40;5.90;;;;;;;1.99;64.57;100180.19;1642229;85;21343;-83
2020/12/26 07:25:03;;;;;;;6.77;6.07;;;;;;;2.02;64.48;100180.75;1656322;85;21196;-84
2020/12/26 07:27:40;;;;;;;8.50;5.20;;;;;;;2.08;64.41;100180.68;1637141;86;22560;-82
2020/12/26 07:30:10;;;;;;;5.03;4.28;;;;;;;2.10;64.22;100181.38;1661761;85;21237;-83
2020/12/26 07:32:42;;;;;;;4.57;3.97;;;;;;;2.15;64.20;100184.43;1647972;84;21219;-85
2020/12/26 07:35:25;;;;;;;5.17;4.67;;;;;;;2.19;63.88;100182.36;1661796;84;21439;-84
2020/12/26 07:38:04;;;;;;;8.27;3.93;;;;;;;2.23;63.95;100194.26;1686539;83;21242;-88
2020/12/26 07:40:40;;;;;;;6.67;4.47;;;;;;;2.28;63.88;100190.70;1688632;84;21879;-86
2020/12/26 07:43:14;;;;;;;7.07;5.23;;;;;;;2.33;64.06;100205.59;1688149;85;21235;-86
2020/12/26 07:45:45;;;;;;;4.93;4.40;;;;;;;2.42;64.26;100199.51;1695361;83;21200;-83
2020/12/26 07:48:26;;;;;;;;;;;;;;;;;;;;;
2020/12/26 07:50:57;;;;;;;7.57;5.23;;;;;;;2.73;63.71;100215.12;1795172;77;23121;-82
2020/12/26 07:53:23;;;;;;;6.57;4.37;;;;;;;2.75;63.46;100217.63;1761120;78;21152;-84
2020/12/26 07:55:51;;;;;;;8.73;5.27;;;;;;;2.83;63.27;100226.98;1782921;79;21459;-87
2020/12/26 07:58:21;;;;;;;10.47;5.77;;;;;;;2.89;63.16;100225.91;1771760;79;21224;-82
2020/12/26 08:00:52;;;;;;;6.67;5.93;;;;;;;2.96;63.39;100222.71;1752159;79;21176;-83
2020/12/26 08:03:19;;;;;;;8.83;6.07;;;;;;;3.06;63.12;100223.53;1786895;79;21431;-84
2020/12/26 08:05:50;;;;;;;6.00;4.80;;;;;;;3.11;62.74;100223.95;1731656;80;21135;-86
2020/12/26 08:08:27;;;;;;;6.50;5.10;;;;;;;3.11;62.90;100223.45;1708217;81;21203;-86
2020/12/26 08:10:59;;;;;;;7.47;4.80;;;;;;;2.88;63.11;100183.47;1712888;81;21164;-83
2020/12/26 08:13:31;;;;;;;8.17;5.60;;;;;;;3.12;63.14;100232.17;1731259;81;21684;-86
2020/12/26 08:16:04;;;;;;;7.40;5.33;;;;;;;3.12;63.48;100221.64;1714570;81;21194;-84
2020/12/26 08:18:33;;;;;;;9.10;5.93;;;;;;;3.17;63.58;100226.50;1739105;81;21177;-84
2020/12/26 08:21:15;;;;;;;9.40;5.97;;;;;;;3.18;63.46;100226.82;1700362;81;21197;-82
2020/12/26 08:24:12;;;;;;;7.13;6.13;;;;;;;3.22;63.58;100226.87;1797497;79;23089;-84
2020/12/26 08:26:38;;;;;;;10.03;6.27;;;;;;;3.18;63.43;100230.77;1729895;81;21218;-83
2020/12/26 08:29:06;;;;;;;8.63;6.20;;;;;;;3.18;63.47;100231.59;1672727;84;21301;-84
2020/12/26 08:31:45;;;;;;;10.03;7.03;;;;;;;3.14;63.55;100239.45;1691052;83;21168;-86
2020/12/26 08:34:42;;;;;;;12.10;5.97;;;;;;;3.11;63.83;100235.80;1664834;84;21366;-87
2020/12/26 08:37:26;;;;;;;6.97;5.85;;;;;;;3.12;63.85;100231.68;1671678;84;21191;-83
2020/12/26 08:40:00;;;;;;;13.30;8.43;;;;;;;3.15;63.98;100231.91;1668821;84;21322;-86
2020/12/26 08:42:39;;;;;;;10.70;7.90;;;;;;;3.14;64.09;100222.33;1670049;84;21203;-84
2020/12/26 08:45:35;;;;;;;13.50;7.03;;;;;;;3.15;64.19;100223.17;1648450;84;21206;-84
2020/12/26 08:48:24;;;;;;;8.33;7.27;;;;;;;3.26;64.14;100219.87;1661596;85;21212;-86
2020/12/26 08:51:01;;;;;;;11.57;6.62;;;;;;;3.45;63.99;100216.83;1666973;84;21391;-86
2020/12/26 08:53:36;;;;;;;10.88;8.30;;;;;;;3.48;63.84;100208.16;1662520;84;21666;-83
2020/12/26 08:56:35;;;;;;;14.13;7.87;;;;;;;3.49;63.79;100193.16;1754912;80;24302;-85
2020/12/26 08:59:29;;;;;;;9.10;6.67;;;;;;;3.46;63.91;100194.76;1758480;81;21183;-86
2020/12/26 09:01:58;;;;;;;9.10;6.83;;;;;;;3.46;63.81;100188.99;1711001;81;21168;-83
2020/12/26 09:04:27;;;;;;;12.67;9.07;;;;;;;3.50;64.02;100179.84;1752682;81;21179;-84
2020/12/26 09:06:57;;;;;;;10.90;9.37;;;;;;;3.53;63.13;100170.80;1700496;83;21074;-83
2020/12/26 09:09:33;;;;;;;20.13;10.87;;;;;;;3.48;63.23;100169.09;1695503;83;21206;-83
2020/12/26 09:12:04;;;;;;;18.60;13.93;;;;;;;3.49;63.61;100165.49;1691140;83;21159;-83
2020/12/26 09:14:32;;;;;;;12.10;9.80;;;;;;;3.58;63.60;100161.98;1698501;83;21143;-86
2020/12/26 09:17:02;;;;;;;9.77;8.77;;;;;;;3.66;63.29;100165.19;1695526;83;21273;-84
2020/12/26 09:19:52;;;;;;;11.43;8.33;;;;;;;3.71;63.14;100170.83;1706185;83;21202;-85
2020/12/26 09:22:19;;;;;;;8.30;7.13;;;;;;;3.74;63.01;100167.91;1691952;83;21200;-86
2020/12/26 09:24:48;;;;;;;8.77;6.93;;;;;;;3.78;62.84;100177.67;1692504;83;21163;-84
2020/12/26 09:27:19;;;;;;;;;;;;;;;3.96;62.40;100185.63;1707353;83;21255;-85
2020/12/26 09:30:04;;;;;;;8.90;6.47;;;;;;;4.09;61.71;100191.36;1814071;78;22600;-88
2020/12/26 09:32:42;;;;;;;11.70;7.53;;;;;;;3.94;61.66;100193.67;1777098;79;21149;-85
2020/12/26 09:35:19;;;;;;;11.10;8.75;;;;;;;3.90;61.78;100209.45;1774912;79;21175;-84
2020/12/26 09:37:57;;;;;;;11.77;6.90;;;;;;;3.85;61.93;100208.56;1707606;83;21274;-85
2020/12/26 09:40:35;;;;;;;9.78;7.33;;;;;;;3.79;62.10;100221.53;1717767;83;21233;-86
2020/12/26 09:43:04;;;;;;;9.10;6.37;;;;;;;3.74;62.29;100226.41;1720036;83;21161;-85
2020/12/26 09:46:04;;;;;;;14.07;7.13;;;;;;;3.76;62.59;100223.13;1794151;79;23017;-87
2020/12/26 09:48:34;;;;;;;10.10;6.77;;;;;;;3.72;62.65;100233.63;1748414;81;21199;-86
2020/12/26 09:51:00;;;;;;;8.00;7.20;;;;;;;3.75;62.50;100230.68;1712226;82;21184;-86
2020/12/26 09:57:17;;;;;;;;;;;;;;;;;;;;;
2020/12/26 10:10:30;;;;;;;16.77;11.63;;;;;;;3.79;62.01;100259.27;1815183;77;23110;-85
2020/12/26 10:12:58;;;;;;;10.27;7.73;;;;;;;3.68;62.31;100250.23;1768392;78;21176;-86
2020/12/26 10:15:25;;;;;;;10.73;7.97;;;;;;;3.70;62.45;100248.27;1767915;78;21214;-83
2020/12/26 10:17:52;;;;;;;13.13;9.20;;;;;;;3.70;62.70;100262.27;1713356;81;21223;-83
2020/12/26 10:20:19;;;;;;;11.80;9.57;;;;;;;3.65;62.80;100272.41;1726895;80;21221;-87
2020/12/26 10:22:46;;;;;;;11.80;8.70;;;;;;;3.55;63.15;100267.69;1734871;80;21174;-84
2020/12/26 10:25:41;;;;;;;10.27;7.33;;;;;;;3.52;63.52;100254.78;1805025;79;23002;-85
2020/12/26 10:28:08;;;;;;;10.83;8.60;;;;;;;3.46;63.80;100256.19;1712973;81;21193;-83
2020/12/26 10:30:35;;;;;;;10.27;7.20;;;;;;;3.44;63.85;100252.05;1725368;81;21241;-87
2020/12/26 10:33:03;;;;;;;7.63;5.70;;;;;;;3.46;64.10;100249.60;1708537;81;21244;-85
2020/12/26 10:35:30;;;;;;;8.17;5.10;;;;;;;3.61;63.64;100257.87;1726450;80;21093;-83
2020/12/26 10:37:57;;;;;;;7.93;6.70;;;;;;;3.78;63.21;100268.13;1681683;83;21229;-85
2020/12/26 10:40:25;;;;;;;9.80;8.00;;;;;;;3.86;62.98;100266.08;1672793;83;21334;-86
2020/12/26 10:42:52;;;;;;;10.30;7.43;;;;;;;3.86;63.18;100277.48;1681507;84;21237;-83
2020/12/26 10:45:19;;;;;;;15.67;10.97;;;;;;;3.63;62.87;100240.10;1691279;83;21221;-84
2020/12/26 10:47:46;;;;;;;15.90;12.20;;;;;;;3.81;62.97;100273.12;1701245;83;21277;-85
2020/12/26 10:50:14;;;;;;;21.00;10.93;;;;;;;3.75;63.34;100268.91;1681150;82;21245;-89
2020/12/26 10:52:41;;;;;;;16.77;12.17;;;;;;;3.70;63.18;100270.67;1686319;83;21845;-85
2020/12/26 10:55:16;;;;;;;11.10;8.37;;;;;;;3.62;63.43;100267.95;1653677;84;21227;-85
2020/12/26 10:57:43;;;;;;;9.00;7.60;;;;;;;3.56;63.49;100275.95;1674503;83;22005;-85
2020/12/26 11:00:13;;;;;;;14.40;7.87;;;;;;;3.51;63.62;100273.73;1671390;83;21208;-85
2020/12/26 11:02:43;;;;;;;17.20;13.60;;;;;;;3.49;63.82;100279.63;1673963;83;21354;-86
2020/12/26 11:05:11;;;;;;;16.97;12.20;;;;;;;3.51;63.94;100286.08;1673325;83;21232;-85
2020/12/26 11:07:38;;;;;;;12.97;9.30;;;;;;;3.61;63.84;100282.09;1672423;83;21574;-86
2020/12/26 11:10:05;;;;;;;14.07;9.80;;;;;;;3.78;63.43;100287.09;1675177;83;21370;-85
2020/12/26 11:12:32;;;;;;;11.10;8.93;;;;;;;3.78;63.43;100287.91;1682007;83;21611;-82
2020/12/26 11:15:00;;;;;;;13.33;7.93;;;;;;;3.72;63.65;100277.95;1678595;83;21258;-86
2020/12/26 11:17:28;;;;;;;11.13;7.87;;;;;;;3.80;63.82;100287.77;1683526;83;21203;-86
2020/12/26 11:19:54;;;;;;;;;;;;;;;3.82;63.95;100288.45;1677705;83;21785;-87
2020/12/26 11:22:21;;;;;;;12.90;7.17;;;;;;;3.83;63.89;100292.77;1687226;83;20530;-83
2020/12/26 11:24:48;;;;;;;10.47;7.43;;;;;;;3.77;63.98;100290.69;1675188;83;21263;-85
2020/12/26 11:27:16;;;;;;;14.03;7.67;;;;;;;3.75;63.90;100286.05;1651463;85;21203;-85
2020/12/26 11:29:45;;;;;;;9.03;7.63;;;;;;;3.73;64.05;100284.90;1682765;83;21226;-86
2020/12/26 11:32:12;;;;;;;10.93;7.73;;;;;;;3.75;64.30;100293.95;1685859;83;21330;-84
2020/12/26 11:34:39;;;;;;;8.47;6.50;;;;;;;3.73;64.38;100289.31;1688895;83;21640;-84
2020/12/26 11:37:08;;;;;;;7.47;6.50;;;;;;;3.76;64.33;100287.72;1670928;83;21087;-86
2020/12/26 11:39:36;;;;;;;9.70;7.63;;;;;;;3.82;64.25;100284.00;1612571;87;21199;-85
2020/12/26 11:42:04;;;;;;;10.80;9.27;;;;;;;3.82;64.25;100289.27;1618288;87;21463;-87
2020/12/26 11:44:31;;;;;;;10.03;8.63;;;;;;;3.76;64.47;100289.04;1664119;85;21219;-85
2020/12/26 11:47:00;;;;;;;11.90;9.67;;;;;;;3.72;64.62;100291.13;1662154;85;21216;-85
2020/12/26 11:49:28;;;;;;;13.03;9.27;;;;;;;3.64;64.91;100285.77;1634898;85;21253;-87
2020/12/26 11:51:58;;;;;;;11.23;8.40;;;;;;;3.59;65.20;100288.81;1623173;86;21336;-86
2020/12/26 11:56:23;;;;;;;9.43;7.90;;;;;;;3.57;65.64;100273.64;1815457;77;23071;-85
2020/12/26 11:58:54;;;;;;;12.20;9.07;;;;;;;3.46;65.88;100277.27;1812837;78;21175;-85
2020/12/26 12:01:23;;;;;;;13.50;9.70;;;;;;;3.45;66.00;100277.44;1787134;78;21219;-85
2020/12/26 12:03:50;;;;;;;17.13;10.37;;;;;;;3.53;65.88;100281.49;1762695;78;21147;-84
2020/12/26 12:06:25;;;;;;;11.80;8.97;;;;;;;3.65;65.64;100280.81;1746376;77;21470;-84
2020/12/26 12:09:01;;;;;;;12.37;8.37;;;;;;;3.70;65.71;100291.77;1689016;81;21171;-85
2020/12/26 12:11:29;;;;;;;12.00;8.67;;;;;;;3.68;65.69;100287.13;1716119;81;21160;-84
2020/12/26 12:14:16;;;;;;;11.08;9.90;;;;;;;3.71;65.75;100272.32;1756739;79;28282;-84